Time;durP1;ratioP1;P1;durP2;ratioP2;P2;SDS_P1;SDS_P2;PMS_P1;PMS_P2;Temp;Humidity;BMP_temperature;BMP_pressure;BME280_temperature;BME280_humidity;BME280_pressure;Samples;Min_cycle;Max_cycle;Signal;HPM_P1;HPM_P2
2021/06/20 00:00:20;;;;;;;13.82;12.45;;;;;;;;;;5006590;28;20038;-77
2021/06/20 00:02:46;;;;;;;15.55;12.13;;;;;;;;;;4991400;28;20030;-78
2021/06/20 00:05:15;;;;;;;17.95;12.77;;;;;;;;;;4992647;28;20026;-78
2021/06/20 00:07:45;;;;;;;14.18;12.13;;;;;;;;;;4991031;28;20030;-78
2021/06/20 00:10:13;;;;;;;15.30;12.43;;;;;;;;;;4992750;28;20030;-78
2021/06/20 00:12:40;;;;;;;15.50;12.90;;;;;;;;;;5007401;28;20029;-78
2021/06/20 00:15:09;;;;;;;15.40;12.55;;;;;;;;;;4992193;28;20101;-77
2021/06/20 00:17:36;;;;;;;15.38;13.23;;;;;;;;;;4990924;28;20037;-78
2021/06/20 00:20:03;;;;;;;14.13;12.63;;;;;;;;;;4992233;28;20483;-78
2021/06/20 00:22:28;;;;;;;14.23;12.73;;;;;;;;;;5007204;28;20030;-77
2021/06/20 00:24:53;;;;;;;15.98;14.35;;;;;;;;;;4991447;28;20037;-76
2021/06/20 00:27:19;;;;;;;15.75;12.77;;;;;;;;;;4992828;28;20482;-76
2021/06/20 00:29:44;;;;;;;20.95;12.75;;;;;;;;;;5007366;28;20026;-77
2021/06/20 00:32:10;;;;;;;13.95;11.98;;;;;;;;;;4991184;28;20655;-76
2021/06/20 00:34:35;;;;;;;19.67;12.45;;;;;;;;;;4991691;28;20035;-77
2021/06/20 00:37:01;;;;;;;14.32;12.93;;;;;;;;;;4992324;28;20310;-77
2021/06/20 00:39:27;;;;;;;13.95;12.48;;;;;;;;;;4990367;28;20177;-78
2021/06/20 00:41:52;;;;;;;13.75;11.68;;;;;;;;;;4990435;28;20054;-77
2021/06/20 00:44:18;;;;;;;14.70;12.48;;;;;;;;;;4990448;28;20077;-77
2021/06/20 00:46:43;;;;;;;13.93;12.48;;;;;;;;;;4990192;28;20057;-78
2021/06/20 00:49:09;;;;;;;13.23;11.88;;;;;;;;;;4991793;28;20030;-78
2021/06/20 00:51:34;;;;;;;14.55;11.52;;;;;;;;;;4991484;28;20018;-78
2021/06/20 00:54:00;;;;;;;22.27;12.52;;;;;;;;;;4991833;28;20029;-77
2021/06/20 00:56:25;;;;;;;16.58;12.48;;;;;;;;;;4997175;28;20471;-78
2021/06/20 00:59:01;;;;;;;15.93;13.68;;;;;;;;;;4995925;28;20161;-77
2021/06/20 01:01:29;;;;;;;15.63;13.77;;;;;;;;;;4992220;28;20101;-77
2021/06/20 01:03:56;;;;;;;14.45;12.30;;;;;;;;;;4991428;28;20483;-77
2021/06/20 01:06:22;;;;;;;14.25;12.40;;;;;;;;;;4991377;28;20479;-78
2021/06/20 01:08:47;;;;;;;15.95;13.38;;;;;;;;;;4989754;28;20030;-77
2021/06/20 01:11:13;;;;;;;16.48;12.82;;;;;;;;;;5005986;28;20061;-78
2021/06/20 01:13:38;;;;;;;19.15;13.68;;;;;;;;;;4991179;28;20101;-77
2021/06/20 01:16:04;;;;;;;17.90;13.65;;;;;;;;;;4991106;28;20020;-77
2021/06/20 01:18:29;;;;;;;16.35;13.02;;;;;;;;;;4989687;28;20033;-78
2021/06/20 01:20:55;;;;;;;17.80;12.30;;;;;;;;;;4992030;28;20481;-78
2021/06/20 01:23:20;;;;;;;15.43;13.00;;;;;;;;;;4991798;28;20038;-78
2021/06/20 01:25:46;;;;;;;17.33;13.07;;;;;;;;;;4989774;28;20294;-76
2021/06/20 01:28:13;;;;;;;14.88;13.32;;;;;;;;;;4990993;28;20057;-77
2021/06/20 01:30:45;;;;;;;14.63;13.02;;;;;;;;;;4989291;28;20023;-77
2021/06/20 01:33:12;;;;;;;16.95;13.02;;;;;;;;;;4990917;28;20382;-77
2021/06/20 01:35:39;;;;;;;17.85;13.93;;;;;;;;;;4989072;28;20050;-77
2021/06/20 01:38:07;;;;;;;17.27;14.00;;;;;;;;;;4989330;28;20109;-77
2021/06/20 01:40:33;;;;;;;24.55;14.52;;;;;;;;;;4989297;28;20478;-79
2021/06/20 01:42:58;;;;;;;19.90;14.05;;;;;;;;;;4990181;28;20085;-77
2021/06/20 01:45:25;;;;;;;14.88;13.32;;;;;;;;;;4991079;28;20030;-76
2021/06/20 01:47:53;;;;;;;16.48;14.75;;;;;;;;;;5005707;28;20113;-77
2021/06/20 01:50:19;;;;;;;16.63;14.07;;;;;;;;;;5005528;28;20042;-77
2021/06/20 01:52:45;;;;;;;15.13;12.90;;;;;;;;;;4990419;28;20030;-77
2021/06/20 01:55:13;;;;;;;16.70;14.18;;;;;;;;;;4989172;28;20125;-78
2021/06/20 01:57:41;;;;;;;17.63;14.25;;;;;;;;;;4988710;28;20087;-77
2021/06/20 02:00:12;;;;;;;14.50;13.10;;;;;;;;;;4990757;28;20029;-77
2021/06/20 02:02:38;;;;;;;18.27;16.50;;;;;;;;;;5005824;28;20018;-78
2021/06/20 02:05:04;;;;;;;15.95;14.38;;;;;;;;;;4990424;28;20479;-78
2021/06/20 02:07:29;;;;;;;15.30;13.30;;;;;;;;;;4989006;28;20026;-77
2021/06/20 02:09:56;;;;;;;17.05;13.95;;;;;;;;;;4990613;28;20341;-78
2021/06/20 02:12:23;;;;;;;15.32;12.93;;;;;;;;;;4989160;28;20391;-77
2021/06/20 02:14:50;;;;;;;15.40;13.63;;;;;;;;;;4988805;28;20054;-77
2021/06/20 02:17:22;;;;;;;16.00;13.15;;;;;;;;;;4989176;28;20084;-77
2021/06/20 02:19:48;;;;;;;17.73;14.23;;;;;;;;;;4989964;28;20026;-77
2021/06/20 02:22:14;;;;;;;16.48;13.23;;;;;;;;;;4990707;28;20037;-78
2021/06/20 02:24:40;;;;;;;14.48;12.98;;;;;;;;;;4994224;28;20106;-77
2021/06/20 02:27:09;;;;;;;15.30;13.25;;;;;;;;;;5009306;28;20125;-78
2021/06/20 02:29:34;;;;;;;19.75;14.13;;;;;;;;;;4994439;28;20053;-76
2021/06/20 02:32:00;;;;;;;15.90;14.20;;;;;;;;;;4994283;28;20116;-77
2021/06/20 02:34:25;;;;;;;19.95;14.40;;;;;;;;;;4993103;28;20112;-76
2021/06/20 02:36:51;;;;;;;15.65;13.80;;;;;;;;;;4994323;28;20536;-77
2021/06/20 02:39:16;;;;;;;17.13;13.68;;;;;;;;;;4994808;28;20034;-74
2021/06/20 02:41:44;;;;;;;17.00;14.20;;;;;;;;;;4994426;28;20058;-73
2021/06/20 02:44:09;;;;;;;17.48;13.57;;;;;;;;;;4993247;28;20507;-74
2021/06/20 02:46:35;;;;;;;17.83;13.30;;;;;;;;;;4994282;28;20024;-74
2021/06/20 02:49:00;;;;;;;17.98;14.18;;;;;;;;;;4994449;28;20437;-78
2021/06/20 02:51:26;;;;;;;15.10;13.10;;;;;;;;;;5009246;28;20022;-77
2021/06/20 02:53:52;;;;;;;18.35;14.35;;;;;;;;;;4993717;28;20025;-76
2021/06/20 02:56:17;;;;;;;14.68;13.27;;;;;;;;;;4992537;28;20211;-75
2021/06/20 02:58:42;;;;;;;18.23;14.75;;;;;;;;;;4992558;28;20037;-76
2021/06/20 03:01:08;;;;;;;111.45;20.60;;;;;;;;;;4993707;28;20425;-77
2021/06/20 03:03:35;;;;;;;19.33;14.25;;;;;;;;;;4993383;28;20081;-78
2021/06/20 03:06:02;;;;;;;15.00;13.40;;;;;;;;;;4992415;28;20038;-77
2021/06/20 03:08:28;;;;;;;18.70;14.48;;;;;;;;;;4993497;28;20026;-77
2021/06/20 03:10:53;;;;;;;17.67;14.00;;;;;;;;;;4993162;28;20034;-76
2021/06/20 03:13:19;;;;;;;15.90;14.13;;;;;;;;;;5008619;28;20030;-76
2021/06/20 03:15:46;;;;;;;15.63;13.95;;;;;;;;;;4993541;28;20053;-77
2021/06/20 03:18:11;;;;;;;15.25;13.73;;;;;;;;;;4993480;28;20034;-78
2021/06/20 03:20:37;;;;;;;20.13;16.15;;;;;;;;;;4993222;28;20249;-78
2021/06/20 03:23:04;;;;;;;18.08;14.88;;;;;;;;;;4993664;28;20046;-76
2021/06/20 03:25:30;;;;;;;17.08;15.00;;;;;;;;;;5008494;28;20360;-76
2021/06/20 03:27:55;;;;;;;18.88;14.90;;;;;;;;;;4992529;28;20032;-77
2021/06/20 03:30:21;;;;;;;16.80;15.02;;;;;;;;;;4991850;28;20045;-77
2021/06/20 03:32:47;;;;;;;17.02;14.40;;;;;;;;;;4992802;28;20471;-77
2021/06/20 03:35:13;;;;;;;17.95;15.77;;;;;;;;;;4991959;28;20026;-76
2021/06/20 03:37:39;;;;;;;18.48;14.15;;;;;;;;;;4992956;28;20026;-77
2021/06/20 03:40:05;;;;;;;17.40;14.95;;;;;;;;;;4991516;28;20118;-76
2021/06/20 03:42:30;;;;;;;17.58;15.30;;;;;;;;;;4993024;28;20061;-75
2021/06/20 03:44:57;;;;;;;19.33;15.38;;;;;;;;;;5008255;28;20030;-76
2021/06/20 03:47:23;;;;;;;20.17;14.77;;;;;;;;;;4992989;28;20027;-77
2021/06/20 03:49:49;;;;;;;16.42;14.57;;;;;;;;;;4993170;28;20026;-77
2021/06/20 03:52:14;;;;;;;17.98;15.40;;;;;;;;;;4992619;28;20037;-76
2021/06/20 03:54:40;;;;;;;16.17;14.45;;;;;;;;;;4991113;28;20414;-76
2021/06/20 03:57:05;;;;;;;16.38;14.30;;;;;;;;;;4991377;28;20373;-76
2021/06/20 03:59:31;;;;;;;14.73;13.23;;;;;;;;;;4993050;28;20112;-78
2021/06/20 04:01:56;;;;;;;16.75;14.85;;;;;;;;;;4993015;28;20038;-76
2021/06/20 04:04:22;;;;;;;16.30;14.57;;;;;;;;;;4992946;28;20029;-77
2021/06/20 04:06:48;;;;;;;16.30;14.45;;;;;;;;;;4992455;28;20474;-77
2021/06/20 04:09:14;;;;;;;17.67;14.40;;;;;;;;;;4991218;28;20099;-75
2021/06/20 04:11:39;;;;;;;17.40;14.63;;;;;;;;;;4992320;28;20054;-77
2021/06/20 04:14:06;;;;;;;19.98;14.95;;;;;;;;;;4992175;28;20014;-76
2021/06/20 04:16:32;;;;;;;17.15;14.63;;;;;;;;;;5007025;28;20030;-77
2021/06/20 04:18:59;;;;;;;17.98;16.27;;;;;;;;;;4992420;28;20083;-77
2021/06/20 04:21:25;;;;;;;17.85;15.88;;;;;;;;;;4992248;28;20088;-76
2021/06/20 04:23:50;;;;;;;16.60;14.80;;;;;;;;;;4994045;28;20489;-76
2021/06/20 04:26:16;;;;;;;22.98;15.07;;;;;;;;;;4991979;28;20030;-77
2021/06/20 04:28:43;;;;;;;18.17;15.10;;;;;;;;;;5007005;28;20030;-76
2021/06/20 04:31:08;;;;;;;18.00;15.10;;;;;;;;;;4990711;28;20027;-77
2021/06/20 04:33:34;;;;;;;16.80;14.95;;;;;;;;;;4991889;28;20018;-76
2021/06/20 04:36:00;;;;;;;20.40;14.95;;;;;;;;;;5007035;28;20151;-77
2021/06/20 04:38:25;;;;;;;16.80;15.00;;;;;;;;;;4991998;28;20360;-77
2021/06/20 04:40:56;;;;;;;18.45;16.15;;;;;;;;;;5006445;28;20536;-77
2021/06/20 04:46:33;;;;;;;18.63;14.18;;;;;;;;;;4991186;28;20045;-77
2021/06/20 04:49:03;;;;;;;17.73;14.82;;;;;;;;;;4989741;28;20033;-77
2021/06/20 04:51:31;;;;;;;18.27;15.32;;;;;;;;;;4991684;28;20371;-77
2021/06/20 04:53:57;;;;;;;19.40;15.23;;;;;;;;;;4991551;28;20018;-78
2021/06/20 04:56:23;;;;;;;18.38;15.60;;;;;;;;;;4991679;28;20044;-76
2021/06/20 04:58:48;;;;;;;20.13;15.23;;;;;;;;;;4991279;28;20376;-77
2021/06/20 05:01:14;;;;;;;16.70;14.98;;;;;;;;;;4991213;28;20041;-76
2021/06/20 05:03:39;;;;;;;15.63;14.10;;;;;;;;;;4990013;28;20045;-77
2021/06/20 05:06:05;;;;;;;16.35;14.40;;;;;;;;;;4991806;28;20042;-78
2021/06/20 05:08:30;;;;;;;16.67;14.95;;;;;;;;;;4990298;28;20030;-78
2021/06/20 05:10:56;;;;;;;18.08;14.45;;;;;;;;;;4990283;28;20058;-77
2021/06/20 05:13:22;;;;;;;16.13;13.82;;;;;;;;;;4991611;28;20049;-77
2021/06/20 05:15:47;;;;;;;17.77;14.43;;;;;;;;;;4990042;28;20030;-75
2021/06/20 05:18:13;;;;;;;18.90;14.20;;;;;;;;;;4990157;28;20037;-76
2021/06/20 05:20:41;;;;;;;17.10;14.52;;;;;;;;;;4991255;28;20391;-75
2021/06/20 05:23:07;;;;;;;16.45;14.88;;;;;;;;;;4991611;28;20046;-75
2021/06/20 05:25:34;;;;;;;16.17;14.57;;;;;;;;;;4991646;28;20360;-75
2021/06/20 05:27:59;;;;;;;16.85;15.25;;;;;;;;;;4989825;28;20471;-76
2021/06/20 05:30:25;;;;;;;16.80;14.75;;;;;;;;;;4990003;28;20045;-75
2021/06/20 05:32:51;;;;;;;15.07;13.68;;;;;;;;;;4991311;28;20057;-75
2021/06/20 05:35:17;;;;;;;17.40;14.23;;;;;;;;;;4989773;28;20075;-75
2021/06/20 05:37:43;;;;;;;16.48;14.25;;;;;;;;;;5006039;28;20042;-75
2021/06/20 05:40:08;;;;;;;16.73;13.95;;;;;;;;;;4991053;28;20033;-76
2021/06/20 05:42:34;;;;;;;19.65;13.70;;;;;;;;;;4990976;28;20046;-75
2021/06/20 05:45:00;;;;;;;15.43;13.77;;;;;;;;;;4989537;28;20026;-75
2021/06/20 05:47:25;;;;;;;16.10;14.18;;;;;;;;;;4991439;28;20037;-75
2021/06/20 05:49:51;;;;;;;19.67;14.15;;;;;;;;;;4989641;28;20062;-75
2021/06/20 05:52:16;;;;;;;15.63;13.55;;;;;;;;;;4989814;28;20026;-76
2021/06/20 05:54:49;;;;;;;16.20;14.02;;;;;;;;;;4990568;28;20080;-76
2021/06/20 05:57:15;;;;;;;13.93;12.13;;;;;;;;;;4990080;28;20026;-76
2021/06/20 05:59:41;;;;;;;12.80;11.50;;;;;;;;;;5005940;28;20022;-76
2021/06/20 06:02:07;;;;;;;14.45;11.20;;;;;;;;;;4990593;28;20080;-76
2021/06/20 06:04:32;;;;;;;14.30;11.40;;;;;;;;;;4990877;28;20057;-76
2021/06/20 06:06:58;;;;;;;15.48;10.27;;;;;;;;;;4989578;28;20100;-75
2021/06/20 06:09:23;;;;;;;13.32;12.05;;;;;;;;;;4990874;28;20065;-76
2021/06/20 06:11:50;;;;;;;10.80;9.52;;;;;;;;;;4990718;28;20105;-76
2021/06/20 06:14:16;;;;;;;11.43;10.25;;;;;;;;;;4989334;28;20022;-75
2021/06/20 06:16:41;;;;;;;16.75;10.63;;;;;;;;;;4990408;28;20085;-76
2021/06/20 06:19:07;;;;;;;13.38;11.20;;;;;;;;;;4989535;28;20026;-76
2021/06/20 06:21:33;;;;;;;13.90;11.50;;;;;;;;;;4990813;28;20101;-76
2021/06/20 06:23:58;;;;;;;13.90;11.80;;;;;;;;;;4990745;28;20046;-75
2021/06/20 06:26:24;;;;;;;13.55;10.52;;;;;;;;;;4989138;28;20538;-76
2021/06/20 06:28:50;;;;;;;13.63;12.02;;;;;;;;;;4989069;28;20109;-76
2021/06/20 06:31:15;;;;;;;16.08;11.38;;;;;;;;;;4988964;28;20084;-76
2021/06/20 06:33:41;;;;;;;13.02;11.73;;;;;;;;;;4988920;28;20022;-75
2021/06/20 06:36:07;;;;;;;12.57;11.45;;;;;;;;;;4990105;28;20088;-75
2021/06/20 06:38:33;;;;;;;13.73;11.95;;;;;;;;;;4989151;28;20513;-77
2021/06/20 06:40:58;;;;;;;12.57;11.13;;;;;;;;;;4990345;28;20030;-75
2021/06/20 06:43:24;;;;;;;11.93;10.65;;;;;;;;;;4988697;28;20046;-75
2021/06/20 06:45:50;;;;;;;14.95;12.27;;;;;;;;;;4990146;28;20034;-75
2021/06/20 06:48:17;;;;;;;11.82;10.23;;;;;;;;;;4990596;28;20026;-74
2021/06/20 06:50:44;;;;;;;16.58;10.52;;;;;;;;;;4990117;28;20019;-75
2021/06/20 06:53:10;;;;;;;11.98;10.27;;;;;;;;;;4989992;28;20030;-76
2021/06/20 06:55:35;;;;;;;10.15;9.13;;;;;;;;;;4989591;28;20053;-76
2021/06/20 06:58:02;;;;;;;13.02;8.60;;;;;;;;;;4988716;28;20065;-75
2021/06/20 07:00:28;;;;;;;11.65;10.30;;;;;;;;;;4988936;28;20037;-74
2021/06/20 07:02:54;;;;;;;9.57;8.75;;;;;;;;;;4990137;28;20026;-75
2021/06/20 07:05:20;;;;;;;12.23;9.10;;;;;;;;;;4988667;28;20032;-75
2021/06/20 07:07:46;;;;;;;11.60;9.73;;;;;;;;;;4989819;28;20032;-76
2021/06/20 07:10:12;;;;;;;10.45;9.35;;;;;;;;;;4994083;28;20030;-75
2021/06/20 07:12:37;;;;;;;12.55;9.80;;;;;;;;;;4994030;28;20041;-75
2021/06/20 07:15:05;;;;;;;10.90;9.80;;;;;;;;;;4993625;28;20034;-75
2021/06/20 07:17:35;;;;;;;11.02;9.27;;;;;;;;;;4993744;28;20043;-75
2021/06/20 07:20:02;;;;;;;10.88;9.65;;;;;;;;;;4992396;28;20311;-75
2021/06/20 07:22:29;;;;;;;12.50;10.50;;;;;;;;;;4992563;28;20026;-76
2021/06/20 07:24:55;;;;;;;10.77;9.65;;;;;;;;;;4992217;28;20380;-75
2021/06/20 07:27:20;;;;;;;12.05;9.68;;;;;;;;;;4992424;28;20026;-76
2021/06/20 07:29:48;;;;;;;9.68;8.80;;;;;;;;;;5008683;28;20034;-75
2021/06/20 07:32:14;;;;;;;11.43;9.10;;;;;;;;;;5008563;28;20144;-75
2021/06/20 07:34:42;;;;;;;10.55;9.35;;;;;;;;;;4993567;28;20022;-76
2021/06/20 07:37:07;;;;;;;12.95;9.82;;;;;;;;;;4992073;28;20037;-75
2021/06/20 07:39:33;;;;;;;10.80;9.73;;;;;;;;;;5008205;28;20019;-75
2021/06/20 07:42:00;;;;;;;12.10;9.02;;;;;;;;;;4993122;28;20050;-76
2021/06/20 07:44:26;;;;;;;11.65;9.27;;;;;;;;;;4993147;28;20100;-76
2021/06/20 07:46:52;;;;;;;12.05;9.65;;;;;;;;;;4993526;28;20487;-76
2021/06/20 07:49:17;;;;;;;14.95;9.25;;;;;;;;;;4992187;28;20030;-76
2021/06/20 07:51:44;;;;;;;12.27;9.48;;;;;;;;;;4993296;28;20034;-75
2021/06/20 07:54:10;;;;;;;10.90;9.20;;;;;;;;;;5008592;28;20038;-75
2021/06/20 07:56:35;;;;;;;11.15;10.00;;;;;;;;;;4993257;28;20026;-76
2021/06/20 07:59:01;;;;;;;13.00;11.05;;;;;;;;;;4991651;28;20026;-75
2021/06/20 08:01:28;;;;;;;11.15;9.88;;;;;;;;;;4993073;28;20018;-74
2021/06/20 08:03:54;;;;;;;11.50;10.45;;;;;;;;;;4992949;28;20062;-76
2021/06/20 08:06:20;;;;;;;12.10;10.57;;;;;;;;;;4991705;28;20482;-76
2021/06/20 08:08:46;;;;;;;10.52;9.50;;;;;;;;;;4991350;28;20640;-76
2021/06/20 08:11:12;;;;;;;10.82;9.65;;;;;;;;;;4992894;28;20037;-75
2021/06/20 08:13:37;;;;;;;11.55;9.40;;;;;;;;;;4991206;28;20108;-75
2021/06/20 08:16:03;;;;;;;9.00;8.15;;;;;;;;;;4992739;28;20041;-74
2021/06/20 08:18:29;;;;;;;9.95;9.15;;;;;;;;;;4992769;28;20462;-76
2021/06/20 08:20:54;;;;;;;14.15;9.30;;;;;;;;;;4989917;28;20026;-75
2021/06/20 08:23:21;;;;;;;9.05;8.23;;;;;;;;;;4991237;28;20543;-76
2021/06/20 08:25:46;;;;;;;9.52;8.25;;;;;;;;;;4991585;28;20034;-76
2021/06/20 08:28:12;;;;;;;11.60;8.93;;;;;;;;;;4992750;28;20045;-76
2021/06/20 08:30:38;;;;;;;12.70;8.95;;;;;;;;;;4991121;28;20026;-74
2021/06/20 08:33:03;;;;;;;10.50;8.27;;;;;;;;;;4992240;28;20113;-76
2021/06/20 08:35:29;;;;;;;8.55;7.65;;;;;;;;;;5007029;28;20120;-75
2021/06/20 08:37:54;;;;;;;11.80;7.97;;;;;;;;;;4992607;28;20026;-75
2021/06/20 08:40:20;;;;;;;9.73;7.70;;;;;;;;;;5007412;28;20023;-75
2021/06/20 08:42:45;;;;;;;9.32;8.38;;;;;;;;;;4992350;28;20065;-75
2021/06/20 08:45:14;;;;;;;9.05;8.32;;;;;;;;;;4991781;28;20033;-76
2021/06/20 08:47:41;;;;;;;9.38;8.40;;;;;;;;;;4992044;28;20061;-75
2021/06/20 08:50:07;;;;;;;8.35;7.53;;;;;;;;;;4992230;28;20018;-77
2021/06/20 08:52:33;;;;;;;15.73;7.93;;;;;;;;;;4992077;28;20030;-76
2021/06/20 08:55:02;;;;;;;9.48;8.57;;;;;;;;;;4991506;28;20383;-76
2021/06/20 08:57:36;;;;;;;9.25;8.32;;;;;;;;;;4990181;28;20030;-75
2021/06/20 09:00:09;;;;;;;12.48;8.52;;;;;;;;;;4991472;28;20041;-76
2021/06/20 09:02:34;;;;;;;9.48;7.90;;;;;;;;;;4991666;28;20033;-75
2021/06/20 09:05:04;;;;;;;10.82;7.68;;;;;;;;;;4991400;28;20391;-76
2021/06/20 09:07:36;;;;;;;12.38;8.23;;;;;;;;;;4990401;28;20032;-76
2021/06/20 09:10:23;;;;;;;9.63;8.38;;;;;;;;;;4989856;28;20446;-76
2021/06/20 09:12:51;;;;;;;16.23;9.52;;;;;;;;;;4990540;28;20018;-76
2021/06/20 09:15:22;;;;;;;12.15;7.80;;;;;;;;;;4991236;28;20030;-76
2021/06/20 09:17:49;;;;;;;;;;;;;;;;;;4991804;28;20060;-76
2021/06/20 09:20:15;;;;;;;9.43;7.72;;;;;;;;;;4991479;28;19910;-77
2021/06/20 09:22:40;;;;;;;8.90;7.43;;;;;;;;;;4989874;28;20042;-75
2021/06/20 09:25:09;;;;;;;8.80;8.00;;;;;;;;;;4991464;28;20383;-76
2021/06/20 09:27:35;;;;;;;9.00;7.82;;;;;;;;;;5006429;28;20022;-76
2021/06/20 09:30:09;;;;;;;9.25;7.90;;;;;;;;;;4990908;28;20382;-76
2021/06/20 09:32:37;;;;;;;11.13;7.90;;;;;;;;;;4989894;28;20030;-75
2021/06/20 09:35:05;;;;;;;8.40;7.60;;;;;;;;;;4989613;28;20026;-75
2021/06/20 09:37:32;;;;;;;11.77;7.72;;;;;;;;;;5006170;28;20034;-75
2021/06/20 09:39:57;;;;;;;9.35;7.78;;;;;;;;;;4991153;28;20038;-76
2021/06/20 09:42:23;;;;;;;11.00;8.20;;;;;;;;;;4991136;28;20606;-75
2021/06/20 09:44:55;;;;;;;9.25;7.68;;;;;;;;;;4991373;28;20073;-76
2021/06/20 09:47:23;;;;;;;10.25;7.30;;;;;;;;;;4989620;28;20045;-76
2021/06/20 09:49:52;;;;;;;10.15;7.57;;;;;;;;;;4989886;28;20032;-77
2021/06/20 09:52:31;;;;;;;9.57;7.72;;;;;;;;;;4991321;28;20022;-74
2021/06/20 09:54:59;;;;;;;9.45;7.70;;;;;;;;;;4989490;28;20106;-75
2021/06/20 09:57:24;;;;;;;10.57;7.80;;;;;;;;;;4991189;28;20022;-75
2021/06/20 10:00:01;;;;;;;11.05;7.38;;;;;;;;;;4990942;28;20073;-75
2021/06/20 10:02:31;;;;;;;10.23;7.55;;;;;;;;;;4991233;28;20097;-75
2021/06/20 10:04:59;;;;;;;8.27;7.38;;;;;;;;;;4989382;28;20030;-76
2021/06/20 10:07:26;;;;;;;7.50;6.78;;;;;;;;;;4990946;28;20026;-75
2021/06/20 10:09:53;;;;;;;9.48;7.55;;;;;;;;;;4990796;28;20030;-76
2021/06/20 10:12:19;;;;;;;9.13;7.43;;;;;;;;;;4990739;28;20056;-74
2021/06/20 10:14:46;;;;;;;9.77;6.40;;;;;;;;;;5005818;28;20028;-75
2021/06/20 10:17:16;;;;;;;12.18;6.93;;;;;;;;;;4990668;28;20030;-75
2021/06/20 10:19:49;;;;;;;9.15;7.57;;;;;;;;;;4991112;28;20030;-76
2021/06/20 10:22:19;;;;;;;7.57;6.88;;;;;;;;;;4990713;28;20467;-76
2021/06/20 10:24:46;;;;;;;9.82;7.10;;;;;;;;;;4990772;28;20150;-75
2021/06/20 10:27:44;;;;;;;8.77;6.82;;;;;;;;;;4990788;28;20034;-76
2021/06/20 10:30:18;;;;;;;6.60;6.00;;;;;;;;;;4988731;28;20121;-75
2021/06/20 10:33:01;;;;;;;7.05;6.35;;;;;;;;;;4990562;28;20030;-76
2021/06/20 10:35:27;;;;;;;6.20;5.70;;;;;;;;;;4989142;28;20475;-75
2021/06/20 10:37:53;;;;;;;8.40;5.63;;;;;;;;;;4990599;28;20036;-76
2021/06/20 10:40:20;;;;;;;5.72;5.10;;;;;;;;;;4989099;28;20018;-76
2021/06/20 10:42:46;;;;;;;6.85;5.50;;;;;;;;;;4990088;28;20050;-75
2021/06/20 10:45:12;;;;;;;7.65;5.38;;;;;;;;;;4992687;28;20041;-76
2021/06/20 10:47:40;;;;;;;6.25;5.60;;;;;;;;;;5009500;28;20022;-75
2021/06/20 10:50:08;;;;;;;11.30;6.68;;;;;;;;;;4994073;28;20065;-75
2021/06/20 10:52:35;;;;;;;8.23;7.43;;;;;;;;;;5009414;28;20033;-76
2021/06/20 10:55:17;;;;;;;8.98;7.57;;;;;;;;;;4992750;28;20435;-76
2021/06/20 10:57:53;;;;;;;8.98;7.32;;;;;;;;;;4993040;28;20358;-76
2021/06/20 11:00:35;;;;;;;9.05;7.63;;;;;;;;;;4992655;28;20089;-76
2021/06/20 11:03:24;;;;;;;8.27;7.43;;;;;;;;;;4993652;28;20029;-75
2021/06/20 11:05:55;;;;;;;7.60;6.82;;;;;;;;;;4992671;28;20402;-74
2021/06/20 11:08:29;;;;;;;8.35;7.60;;;;;;;;;;4993706;28;20101;-76
2021/06/20 11:11:06;;;;;;;9.68;8.48;;;;;;;;;;4993942;28;20060;-76
2021/06/20 11:13:32;;;;;;;8.57;7.63;;;;;;;;;;4993659;28;20045;-76
2021/06/20 11:16:11;;;;;;;10.77;8.50;;;;;;;;;;4993213;28;20026;-76
2021/06/20 11:18:36;;;;;;;8.13;7.28;;;;;;;;;;4994031;28;20050;-76
2021/06/20 11:21:02;;;;;;;8.27;7.57;;;;;;;;;;5008671;28;20061;-77
2021/06/20 11:23:31;;;;;;;8.18;7.35;;;;;;;;;;4994006;28;20379;-75
2021/06/20 11:25:59;;;;;;;7.97;7.13;;;;;;;;;;4992241;28;20037;-76
2021/06/20 11:28:25;;;;;;;7.50;6.90;;;;;;;;;;5008837;28;20503;-76
2021/06/20 11:30:51;;;;;;;9.50;7.22;;;;;;;;;;4993624;28;20167;-77
2021/06/20 11:33:26;;;;;;;7.55;6.85;;;;;;;;;;4992291;28;20022;-75
2021/06/20 11:35:53;;;;;;;8.32;6.72;;;;;;;;;;4992335;28;20495;-75
2021/06/20 11:38:33;;;;;;;11.80;7.28;;;;;;;;;;4992309;28;20045;-76
2021/06/20 11:41:18;;;;;;;8.38;7.15;;;;;;;;;;4992146;28;20049;-76
2021/06/20 11:44:02;;;;;;;7.38;6.72;;;;;;;;;;4992940;28;20050;-76
2021/06/20 11:46:33;;;;;;;9.23;6.93;;;;;;;;;;4992151;28;20026;-76
2021/06/20 11:49:12;;;;;;;9.13;7.30;;;;;;;;;;5008529;28;20376;-76
2021/06/20 11:51:43;;;;;;;9.57;7.13;;;;;;;;;;4993265;28;20018;-76
2021/06/20 11:54:24;;;;;;;8.50;7.53;;;;;;;;;;4992140;28;20023;-75
2021/06/20 11:56:53;;;;;;;9.90;7.07;;;;;;;;;;4993054;28;20026;-75
2021/06/20 11:59:29;;;;;;;8.48;6.28;;;;;;;;;;4991887;28;20038;-75
2021/06/20 12:01:54;;;;;;;7.32;6.63;;;;;;;;;;4993033;28;20030;-77
2021/06/20 12:04:22;;;;;;;7.57;6.90;;;;;;;;;;4991524;28;20438;-75
2021/06/20 12:06:48;;;;;;;7.90;6.82;;;;;;;;;;4993077;28;20117;-76
2021/06/20 12:09:14;;;;;;;7.45;6.75;;;;;;;;;;4993173;28;20026;-76
2021/06/20 12:11:41;;;;;;;7.90;7.20;;;;;;;;;;4992106;28;20479;-75
2021/06/20 12:14:18;;;;;;;7.82;6.43;;;;;;;;;;4992630;28;20478;-75
2021/06/20 12:16:47;;;;;;;8.10;7.30;;;;;;;;;;4992530;28;20022;-75
2021/06/20 12:19:15;;;;;;;7.18;6.68;;;;;;;;;;4992573;28;20028;-76
2021/06/20 12:21:40;;;;;;;7.65;6.88;;;;;;;;;;4992624;28;20336;-75
2021/06/20 12:24:07;;;;;;;7.57;6.80;;;;;;;;;;4992503;28;20042;-77
2021/06/20 12:26:33;;;;;;;8.00;6.82;;;;;;;;;;4991589;28;20113;-76
2021/06/20 12:29:02;;;;;;;9.38;7.10;;;;;;;;;;5007050;28;20026;-75
2021/06/20 12:31:27;;;;;;;14.38;6.65;;;;;;;;;;4990823;28;20496;-75
2021/06/20 12:34:06;;;;;;;7.90;7.10;;;;;;;;;;4990613;28;20106;-76
2021/06/20 12:36:32;;;;;;;8.30;6.32;;;;;;;;;;4991045;28;20042;-75
2021/06/20 12:38:59;;;;;;;8.93;7.07;;;;;;;;;;4992276;28;20333;-76
2021/06/20 12:41:26;;;;;;;8.10;6.78;;;;;;;;;;4991853;28;20026;-76
2021/06/20 12:44:18;;;;;;;11.52;7.10;;;;;;;;;;4992048;28;20023;-76
2021/06/20 12:46:46;;;;;;;7.55;6.85;;;;;;;;;;4991793;28;20121;-76
2021/06/20 12:49:13;;;;;;;8.65;6.28;;;;;;;;;;4991675;28;20545;-75
2021/06/20 12:51:50;;;;;;;10.88;6.85;;;;;;;;;;4992188;28;20030;-76
2021/06/20 12:54:17;;;;;;;9.18;6.88;;;;;;;;;;4990385;28;20135;-76
2021/06/20 12:56:42;;;;;;;10.05;6.32;;;;;;;;;;4990424;28;20033;-76
2021/06/20 12:59:10;;;;;;;10.68;5.95;;;;;;;;;;4990592;28;20034;-74
2021/06/20 13:01:56;;;;;;;7.82;5.95;;;;;;;;;;4991480;28;20110;-76
2021/06/20 13:04:22;;;;;;;9.07;6.25;;;;;;;;;;4991790;28;20089;-76
2021/06/20 13:06:50;;;;;;;9.63;7.43;;;;;;;;;;4991278;28;20048;-76
2021/06/20 13:09:16;;;;;;;8.68;6.18;;;;;;;;;;4991380;28;20069;-76
2021/06/20 13:11:42;;;;;;;7.47;6.40;;;;;;;;;;4990217;28;20098;-76
2021/06/20 13:14:19;;;;;;;12.38;6.88;;;;;;;;;;4991230;28;20033;-76
2021/06/20 13:16:49;;;;;;;7.13;6.43;;;;;;;;;;4989912;28;20121;-76
2021/06/20 13:19:17;;;;;;;8.40;6.32;;;;;;;;;;4991302;28;20033;-75
2021/06/20 13:21:43;;;;;;;7.00;5.68;;;;;;;;;;4990103;28;20407;-76
2021/06/20 13:24:10;;;;;;;6.63;5.80;;;;;;;;;;4989761;28;20477;-76
2021/06/20 13:26:37;;;;;;;9.32;5.93;;;;;;;;;;5006187;28;20042;-76
2021/06/20 13:29:03;;;;;;;11.63;6.28;;;;;;;;;;4989459;28;20078;-76
2021/06/20 13:31:29;;;;;;;5.60;5.05;;;;;;;;;;4991310;28;20337;-76
2021/06/20 13:33:56;;;;;;;6.47;5.18;;;;;;;;;;4991118;28;20367;-76
2021/06/20 13:36:24;;;;;;;7.30;5.88;;;;;;;;;;5005933;28;20034;-76
2021/06/20 13:38:50;;;;;;;7.47;6.10;;;;;;;;;;4990945;28;20053;-75
2021/06/20 13:41:16;;;;;;;5.93;5.43;;;;;;;;;;4991024;28;20026;-76
2021/06/20 13:43:42;;;;;;;7.28;5.95;;;;;;;;;;4990869;28;20050;-76
2021/06/20 13:46:11;;;;;;;7.15;5.43;;;;;;;;;;4991183;28;20037;-77
2021/06/20 13:48:36;;;;;;;6.87;5.70;;;;;;;;;;4990079;28;20085;-75
2021/06/20 13:51:02;;;;;;;7.40;5.40;;;;;;;;;;4991111;28;20407;-77
2021/06/20 13:53:29;;;;;;;8.13;5.40;;;;;;;;;;5006067;28;20417;-75
2021/06/20 13:55:55;;;;;;;8.20;6.32;;;;;;;;;;4991038;28;20050;-76
2021/06/20 13:58:20;;;;;;;7.07;5.32;;;;;;;;;;4989460;28;20072;-76
2021/06/20 14:00:46;;;;;;;5.90;5.40;;;;;;;;;;4989701;28;20030;-75
2021/06/20 14:03:11;;;;;;;7.05;5.78;;;;;;;;;;4990527;28;20283;-77
2021/06/20 14:05:37;;;;;;;8.18;5.38;;;;;;;;;;4990738;28;20106;-75
2021/06/20 14:08:04;;;;;;;10.68;5.00;;;;;;;;;;4990200;28;20018;-76
2021/06/20 14:10:29;;;;;;;5.32;4.82;;;;;;;;;;4990448;28;20058;-76
2021/06/20 14:12:56;;;;;;;7.78;5.35;;;;;;;;;;4988986;28;20068;-77
2021/06/20 14:15:22;;;;;;;8.00;5.20;;;;;;;;;;4990100;28;20538;-76
2021/06/20 14:17:48;;;;;;;7.38;4.75;;;;;;;;;;4988715;28;20034;-76
2021/06/20 14:20:14;;;;;;;10.20;5.93;;;;;;;;;;4990302;28;20034;-75
2021/06/20 14:22:40;;;;;;;6.57;6.00;;;;;;;;;;4989332;28;20022;-75
2021/06/20 14:25:06;;;;;;;9.18;5.60;;;;;;;;;;4990738;28;20394;-76
2021/06/20 14:27:33;;;;;;;11.02;5.80;;;;;;;;;;4989743;28;20121;-74
2021/06/20 14:29:58;;;;;;;6.32;5.65;;;;;;;;;;4990579;28;20380;-76
2021/06/20 14:32:24;;;;;;;6.15;5.53;;;;;;;;;;5005349;28;20044;-77